createdAt,value
2018-12-30T00:00:00.330Z,1030.4
2018-12-30T00:00:59.986Z,1030.57
2018-12-30T00:02:00.345Z,1030.44
2018-12-30T00:03:00.484Z,1030.49
2018-12-30T00:04:00.034Z,1030.54
2018-12-30T00:05:00.281Z,1030.51
2018-12-30T00:06:00.328Z,1030.54
2018-12-30T00:06:59.878Z,1030.54
2018-12-30T00:07:59.976Z,1030.54
2018-12-30T00:09:00.392Z,1030.44
2018-12-30T00:10:00.237Z,1030.44
2018-12-30T00:11:00.375Z,1030.44
2018-12-30T00:11:59.751Z,1030.35
2018-12-30T00:13:00.059Z,1030.39
2018-12-30T00:13:59.841Z,1030.33
2018-12-30T00:15:02.235Z,1030.35
2018-12-30T00:16:00.518Z,1030.38
2018-12-30T00:16:59.707Z,1030.35
2018-12-30T00:17:59.989Z,1030.35
2018-12-30T00:18:59.929Z,1030.26
2018-12-30T00:19:59.779Z,1030.17
2018-12-30T00:20:59.787Z,1030.17
2018-12-30T00:22:00.031Z,1030.2
2018-12-30T00:22:59.914Z,1030.31
2018-12-30T00:24:00.041Z,1030.21
2018-12-30T00:24:59.713Z,1030.27
2018-12-30T00:25:59.726Z,1030.25
2018-12-30T00:26:59.725Z,1030.32
2018-12-30T00:28:00.093Z,1030.27
2018-12-30T00:28:59.739Z,1030.38
2018-12-30T00:30:00.232Z,1030.26
2018-12-30T00:30:59.791Z,1030.31
2018-12-30T00:31:59.795Z,1030.32
2018-12-30T00:32:59.808Z,1030.31
2018-12-30T00:33:59.710Z,1030.4
2018-12-30T00:35:00.040Z,1030.34
2018-12-30T00:35:59.972Z,1030.36
2018-12-30T00:36:59.739Z,1030.39
2018-12-30T00:37:59.794Z,1030.33
2018-12-30T00:39:00.173Z,1030.29
2018-12-30T00:39:59.860Z,1030.3
2018-12-30T00:40:59.902Z,1030.28
2018-12-30T00:41:59.751Z,1030.3
2018-12-30T00:42:59.691Z,1030.24
2018-12-30T00:43:59.689Z,1030.25
2018-12-30T00:44:59.990Z,1030.27
2018-12-30T00:46:00.024Z,1030.14
2018-12-30T00:46:59.974Z,1030.17
2018-12-30T00:47:59.646Z,1030.19
2018-12-30T00:49:00.238Z,1030.22
2018-12-30T00:50:00.167Z,1030.21
2018-12-30T00:50:59.741Z,1030.18
2018-12-30T00:51:59.903Z,1030.17
2018-12-30T00:52:59.886Z,1030.14
2018-12-30T00:53:59.846Z,1030.21
2018-12-30T00:54:59.908Z,1030.22
2018-12-30T00:56:00.033Z,1030.25
2018-12-30T00:57:00.122Z,1030.25
2018-12-30T00:57:59.953Z,1030.24
2018-12-30T00:59:00.063Z,1030.26
2018-12-30T01:00:00.044Z,1030.22
2018-12-30T01:00:59.758Z,1030.22
2018-12-30T01:01:59.763Z,1030.29
2018-12-30T01:02:59.873Z,1030.3
2018-12-30T01:04:00.137Z,1030.25
2018-12-30T01:04:59.787Z,1030.22
2018-12-30T01:06:00.153Z,1030.21
2018-12-30T01:06:59.741Z,1030.27
2018-12-30T01:07:59.958Z,1030.36
2018-12-30T01:08:59.786Z,1030.43
2018-12-30T01:09:59.754Z,1030.42
2018-12-30T01:10:59.713Z,1030.41
2018-12-30T01:12:00.301Z,1030.35
2018-12-30T01:13:00.151Z,1030.43
2018-12-30T01:13:59.761Z,1030.36
2018-12-30T01:14:59.691Z,1030.39
2018-12-30T01:15:59.687Z,1030.29
2018-12-30T01:17:00.538Z,1030.46
2018-12-30T01:17:59.912Z,1030.36
2018-12-30T01:18:59.927Z,1030.37
2018-12-30T01:19:59.898Z,1030.42
2018-12-30T01:21:00.510Z,1030.47
2018-12-30T01:21:59.842Z,1030.48
2018-12-30T01:23:00.018Z,1030.53
2018-12-30T01:23:59.799Z,1030.4
2018-12-30T01:25:00.265Z,1030.44
2018-12-30T01:26:00.033Z,1030.48
2018-12-30T01:26:59.810Z,1030.48
2018-12-30T01:27:59.977Z,1030.47
2018-12-30T01:28:59.721Z,1030.42
2018-12-30T01:29:59.943Z,1030.44
2018-12-30T01:31:00.468Z,1030.54
2018-12-30T01:31:59.783Z,1030.58
2018-12-30T01:32:59.618Z,1030.62
2018-12-30T01:34:00.229Z,1030.63
2018-12-30T01:34:59.642Z,1030.68
2018-12-30T01:35:59.974Z,1030.72
2018-12-30T01:37:00.082Z,1030.69
2018-12-30T01:37:59.788Z,1030.74
2018-12-30T01:38:59.616Z,1030.68
2018-12-30T01:39:59.764Z,1030.64
2018-12-30T01:41:00.034Z,1030.62
2018-12-30T01:41:59.997Z,1030.58
2018-12-30T01:43:00.345Z,1030.53
2018-12-30T01:44:00.005Z,1030.56
2018-12-30T01:44:59.869Z,1030.6
2018-12-30T01:45:59.649Z,1030.6
2018-12-30T01:46:59.685Z,1030.59
2018-12-30T01:47:59.997Z,1030.6
2018-12-30T01:48:59.744Z,1030.65
2018-12-30T01:50:00.436Z,1030.65
2018-12-30T01:50:59.528Z,1030.67
2018-12-30T01:51:59.654Z,1030.7
2018-12-30T01:52:59.526Z,1030.75
2018-12-30T01:53:59.930Z,1030.77
2018-12-30T01:54:59.764Z,1030.76
2018-12-30T01:55:59.944Z,1030.77
2018-12-30T01:56:59.792Z,1030.83
2018-12-30T01:57:59.576Z,1030.82
2018-12-30T01:58:59.677Z,1030.96
2018-12-30T01:59:59.838Z,1030.94
2018-12-30T02:01:00.043Z,1030.97
2018-12-30T02:01:59.644Z,1031.04
2018-12-30T02:02:59.830Z,1031.03
2018-12-30T02:03:59.654Z,1031.05
2018-12-30T02:04:59.703Z,1031.06
2018-12-30T02:05:59.543Z,1031.07
2018-12-30T02:06:59.565Z,1031.14
2018-12-30T02:07:59.659Z,1031.14
2018-12-30T02:08:59.814Z,1031.12
2018-12-30T02:09:59.617Z,1031.14
2018-12-30T02:10:59.863Z,1031.14
2018-12-30T02:11:59.652Z,1031.18
2018-12-30T02:12:59.540Z,1031.24
2018-12-30T02:13:59.611Z,1031.21
2018-12-30T02:14:59.574Z,1031.2
2018-12-30T02:15:59.739Z,1031.24
2018-12-30T02:17:00.020Z,1031.21
2018-12-30T02:17:59.593Z,1031.2
2018-12-30T02:18:59.481Z,1031.39
2018-12-30T02:19:59.738Z,1031.36
2018-12-30T02:20:59.695Z,1031.37
2018-12-30T02:21:59.544Z,1031.49
2018-12-30T02:22:59.942Z,1031.47
2018-12-30T02:23:59.630Z,1031.47
2018-12-30T02:24:59.648Z,1031.46
2018-12-30T02:25:59.629Z,1031.44
2018-12-30T02:26:59.575Z,1031.5
2018-12-30T02:27:59.720Z,1031.37
2018-12-30T02:28:59.736Z,1031.49
2018-12-30T02:30:00.280Z,1031.55
2018-12-30T02:30:59.588Z,1031.41
2018-12-30T02:31:59.470Z,1031.45
2018-12-30T02:32:59.810Z,1031.44
2018-12-30T02:33:59.773Z,1031.44
2018-12-30T02:34:59.983Z,1031.4
2018-12-30T02:35:59.585Z,1031.41
2018-12-30T02:36:59.836Z,1031.48
2018-12-30T02:37:59.612Z,1031.43
2018-12-30T02:38:59.680Z,1031.39
2018-12-30T02:39:59.719Z,1031.41
2018-12-30T02:40:59.652Z,1031.38
2018-12-30T02:41:59.728Z,1031.34
2018-12-30T02:42:59.665Z,1031.33
2018-12-30T02:43:59.757Z,1031.33
2018-12-30T02:44:59.692Z,1031.34
2018-12-30T02:45:59.788Z,1031.39
2018-12-30T02:46:59.955Z,1031.28
2018-12-30T02:47:59.460Z,1031.26
2018-12-30T02:49:00.283Z,1031.28
2018-12-30T02:49:59.685Z,1031.26
2018-12-30T02:51:00.186Z,1031.25
2018-12-30T02:51:59.686Z,1031.26
2018-12-30T02:52:59.530Z,1031.3
2018-12-30T02:53:59.572Z,1031.23
2018-12-30T02:54:59.871Z,1031.37
2018-12-30T02:55:59.695Z,1031.25
2018-12-30T02:56:59.543Z,1031.28
2018-12-30T02:57:59.603Z,1031.24
2018-12-30T02:58:59.650Z,1031.2
2018-12-30T02:59:59.555Z,1031.16
2018-12-30T03:01:00.054Z,1031.21
2018-12-30T03:01:59.862Z,1031.2
2018-12-30T03:02:59.871Z,1031.25
2018-12-30T03:03:59.982Z,1031.25
2018-12-30T03:04:59.570Z,1031.23
2018-12-30T03:05:59.674Z,1031.24
2018-12-30T03:06:59.591Z,1031.3
2018-12-30T03:07:59.448Z,1031.26
2018-12-30T03:08:59.679Z,1031.23
2018-12-30T03:09:59.501Z,1031.23
2018-12-30T03:10:59.410Z,1031.26
2018-12-30T03:11:59.548Z,1031.16
2018-12-30T03:13:00.721Z,1031.21
2018-12-30T03:13:59.634Z,1031.21
2018-12-30T03:14:59.671Z,1031.2
2018-12-30T03:15:59.606Z,1031.26
2018-12-30T03:17:00.262Z,1031.26
2018-12-30T03:17:59.597Z,1031.22
2018-12-30T03:18:59.567Z,1031.24
2018-12-30T03:20:00.304Z,1031.19
2018-12-30T03:20:59.659Z,1031.22
2018-12-30T03:22:00.146Z,1031.25
2018-12-30T03:22:59.577Z,1031.13
2018-12-30T03:23:59.433Z,1031.23
2018-12-30T03:24:59.577Z,1031.22
2018-12-30T03:25:59.610Z,1031.2
2018-12-30T03:26:59.621Z,1031.19
2018-12-30T03:27:59.440Z,1031.25
2018-12-30T03:28:59.436Z,1031.18
2018-12-30T03:29:59.418Z,1031.23
2018-12-30T03:30:59.467Z,1031.23
2018-12-30T03:31:59.486Z,1031.22
2018-12-30T03:32:59.540Z,1031.22
2018-12-30T03:33:59.686Z,1031.21
2018-12-30T03:34:59.544Z,1031.16
2018-12-30T03:35:59.397Z,1031.15
2018-12-30T03:36:59.439Z,1031.18
2018-12-30T03:37:59.665Z,1031.2
2018-12-30T03:38:59.397Z,1031.22
2018-12-30T03:39:59.585Z,1031.18
2018-12-30T03:40:59.476Z,1031.23
2018-12-30T03:41:59.441Z,1031.18
2018-12-30T03:42:59.400Z,1031.2
2018-12-30T03:43:59.793Z,1031.31
2018-12-30T03:44:59.475Z,1031.25
2018-12-30T03:45:59.486Z,1031.24
2018-12-30T03:46:59.408Z,1031.24
2018-12-30T03:47:59.481Z,1031.2
2018-12-30T03:48:59.522Z,1031.27
2018-12-30T03:49:59.427Z,1031.22
2018-12-30T03:50:59.662Z,1031.32
2018-12-30T03:52:08.849Z,1031.31
2018-12-30T03:52:59.396Z,1031.35
2018-12-30T03:53:59.376Z,1031.34
2018-12-30T03:54:59.464Z,1031.33
2018-12-30T03:55:59.468Z,1031.36
2018-12-30T03:56:59.438Z,1031.32
2018-12-30T03:57:59.423Z,1031.33
2018-12-30T03:58:59.420Z,1031.34
2018-12-30T03:59:59.300Z,1031.33
2018-12-30T04:00:59.358Z,1031.37
2018-12-30T04:01:59.427Z,1031.37
2018-12-30T04:02:59.350Z,1031.39
2018-12-30T04:03:59.332Z,1031.45
2018-12-30T04:04:59.889Z,1031.46
2018-12-30T04:05:59.367Z,1031.46
2018-12-30T04:06:59.309Z,1031.43
2018-12-30T04:07:59.418Z,1031.42
2018-12-30T04:08:59.499Z,1031.46
2018-12-30T04:09:59.326Z,1031.39
2018-12-30T04:10:59.525Z,1031.41
2018-12-30T04:12:00.324Z,1031.41
2018-12-30T04:12:59.476Z,1031.44
2018-12-30T04:13:59.546Z,1031.45
2018-12-30T04:14:59.425Z,1031.41
2018-12-30T04:15:59.459Z,1031.48
2018-12-30T04:16:59.501Z,1031.46
2018-12-30T04:17:59.550Z,1031.48
2018-12-30T04:18:59.685Z,1031.53
2018-12-30T04:19:59.453Z,1031.52
2018-12-30T04:20:59.448Z,1031.54
2018-12-30T04:21:59.596Z,1031.49
2018-12-30T04:22:59.415Z,1031.55
2018-12-30T04:23:59.772Z,1031.53
2018-12-30T04:24:59.709Z,1031.55
2018-12-30T04:25:59.409Z,1031.5
2018-12-30T04:26:59.460Z,1031.5
2018-12-30T04:27:59.718Z,1031.49
2018-12-30T04:28:59.679Z,1031.55
2018-12-30T04:29:59.406Z,1031.48
2018-12-30T04:30:59.382Z,1031.48
2018-12-30T04:31:59.507Z,1031.54
2018-12-30T04:32:59.453Z,1031.53
2018-12-30T04:33:59.544Z,1031.52
2018-12-30T04:34:59.426Z,1031.62
2018-12-30T04:35:59.451Z,1031.59
2018-12-30T04:36:59.440Z,1031.59
2018-12-30T04:37:59.481Z,1031.59
2018-12-30T04:38:59.406Z,1031.65
2018-12-30T04:39:59.510Z,1031.66
2018-12-30T04:40:59.491Z,1031.67
2018-12-30T04:41:59.485Z,1031.65
2018-12-30T04:43:00.160Z,1031.68
2018-12-30T04:43:59.533Z,1031.63
2018-12-30T04:44:59.370Z,1031.62
2018-12-30T04:45:59.609Z,1031.58
2018-12-30T04:46:59.387Z,1031.59
2018-12-30T04:47:59.508Z,1031.63
2018-12-30T04:48:59.486Z,1031.62
2018-12-30T04:49:59.374Z,1031.68
2018-12-30T04:50:59.320Z,1031.64
2018-12-30T04:51:59.580Z,1031.58
2018-12-30T04:52:59.666Z,1031.56
2018-12-30T04:53:59.438Z,1031.58
2018-12-30T04:54:59.415Z,1031.61
2018-12-30T04:55:59.493Z,1031.66
2018-12-30T04:56:59.610Z,1031.66
2018-12-30T04:57:59.385Z,1031.67
2018-12-30T04:58:59.392Z,1031.71
2018-12-30T04:59:59.753Z,1031.73
2018-12-30T05:01:00.169Z,1031.73
2018-12-30T05:01:59.496Z,1031.77
2018-12-30T05:02:59.321Z,1031.73
2018-12-30T05:03:59.240Z,1031.73
2018-12-30T05:04:59.410Z,1031.72
2018-12-30T05:05:59.443Z,1031.73
2018-12-30T05:06:59.290Z,1031.71
2018-12-30T05:07:59.371Z,1031.73
2018-12-30T05:08:59.301Z,1031.7
2018-12-30T05:09:59.383Z,1031.76
2018-12-30T05:10:59.400Z,1031.77
2018-12-30T05:12:00.084Z,1031.81
2018-12-30T05:12:59.413Z,1031.83
2018-12-30T05:13:59.387Z,1031.85
2018-12-30T05:14:59.525Z,1031.92
2018-12-30T05:15:59.562Z,1032
2018-12-30T05:16:59.707Z,1032
2018-12-30T05:17:59.733Z,1031.96
2018-12-30T05:18:59.543Z,1031.99
2018-12-30T05:19:59.413Z,1032.04
2018-12-30T05:20:59.304Z,1032.03
2018-12-30T05:21:59.427Z,1032.06
2018-12-30T05:22:59.486Z,1032.06
2018-12-30T05:23:59.387Z,1032.02
2018-12-30T05:24:59.558Z,1032.05
2018-12-30T05:25:59.334Z,1032.13
2018-12-30T05:26:59.325Z,1032.12
2018-12-30T05:28:00.027Z,1032.13
2018-12-30T05:28:59.555Z,1032.17
2018-12-30T05:29:59.362Z,1032.18
2018-12-30T05:30:59.350Z,1032.17
2018-12-30T05:31:59.443Z,1032.13
2018-12-30T05:32:59.754Z,1032.12
2018-12-30T05:33:59.428Z,1032.12
2018-12-30T05:34:59.594Z,1032.17
2018-12-30T05:35:59.395Z,1032.27
2018-12-30T05:36:59.992Z,1032.32
2018-12-30T05:37:59.281Z,1032.32
2018-12-30T05:38:59.289Z,1032.35
2018-12-30T05:39:59.323Z,1032.3
2018-12-30T05:40:59.331Z,1032.36
2018-12-30T05:41:59.264Z,1032.4
2018-12-30T05:42:59.540Z,1032.44
2018-12-30T05:43:59.291Z,1032.45
2018-12-30T05:44:59.358Z,1032.47
2018-12-30T05:45:59.280Z,1032.54
2018-12-30T05:46:59.531Z,1032.58
2018-12-30T05:47:59.276Z,1032.57
2018-12-30T05:48:59.359Z,1032.58
2018-12-30T05:49:59.292Z,1032.58
2018-12-30T05:50:59.332Z,1032.54
2018-12-30T05:51:59.362Z,1032.54
2018-12-30T05:52:59.293Z,1032.53
2018-12-30T05:53:59.219Z,1032.55
2018-12-30T05:54:59.269Z,1032.56
2018-12-30T05:55:59.266Z,1032.62
2018-12-30T05:56:59.343Z,1032.58
2018-12-30T05:58:00.647Z,1032.55
2018-12-30T05:58:59.261Z,1032.6
2018-12-30T05:59:59.404Z,1032.65
2018-12-30T06:00:59.241Z,1032.67
2018-12-30T06:01:59.320Z,1032.77
2018-12-30T06:02:59.322Z,1032.79
2018-12-30T06:03:59.306Z,1032.81
2018-12-30T06:05:00.008Z,1032.84
2018-12-30T06:05:59.574Z,1032.81
2018-12-30T06:06:59.318Z,1032.82
2018-12-30T06:07:59.579Z,1032.77
2018-12-30T06:08:59.296Z,1032.84
2018-12-30T06:09:59.425Z,1032.85
2018-12-30T06:10:59.893Z,1032.8
2018-12-30T06:11:59.352Z,1032.84
2018-12-30T06:12:59.448Z,1032.92
2018-12-30T06:13:59.262Z,1032.93
2018-12-30T06:14:59.337Z,1032.94
2018-12-30T06:15:59.230Z,1032.93
2018-12-30T06:16:59.643Z,1032.96
2018-12-30T06:17:59.226Z,1032.89
2018-12-30T06:18:59.309Z,1032.9
2018-12-30T06:19:59.268Z,1032.88
2018-12-30T06:20:59.382Z,1032.89
2018-12-30T06:21:59.243Z,1032.91
2018-12-30T06:22:59.297Z,1032.93
2018-12-30T06:23:59.374Z,1032.92
2018-12-30T06:24:59.977Z,1032.95
2018-12-30T06:25:59.503Z,1032.98
2018-12-30T06:26:59.440Z,1032.95
2018-12-30T06:27:59.284Z,1032.96
2018-12-30T06:28:59.441Z,1032.99
2018-12-30T06:29:59.168Z,1032.99
2018-12-30T06:30:59.406Z,1033.05
2018-12-30T06:31:59.188Z,1033.09
2018-12-30T06:32:59.370Z,1033.09
2018-12-30T06:33:59.255Z,1033.15
2018-12-30T06:34:59.413Z,1033.2
2018-12-30T06:35:59.287Z,1033.24
2018-12-30T06:36:59.712Z,1033.35
2018-12-30T06:37:59.389Z,1033.31
2018-12-30T06:38:59.242Z,1033.33
2018-12-30T06:39:59.275Z,1033.36
2018-12-30T06:40:59.353Z,1033.39
2018-12-30T06:41:59.370Z,1033.41
2018-12-30T06:42:59.396Z,1033.38
2018-12-30T06:43:59.305Z,1033.39
2018-12-30T06:44:59.245Z,1033.39
2018-12-30T06:45:59.284Z,1033.4
2018-12-30T06:46:59.521Z,1033.42
2018-12-30T06:47:59.581Z,1033.52
2018-12-30T06:48:59.614Z,1033.59
2018-12-30T06:49:59.587Z,1033.62
2018-12-30T06:50:59.319Z,1033.64
2018-12-30T06:51:59.358Z,1033.63
2018-12-30T06:52:59.236Z,1033.69
2018-12-30T06:53:59.316Z,1033.73
2018-12-30T06:54:59.301Z,1033.7
2018-12-30T06:55:59.171Z,1033.75
2018-12-30T06:56:59.147Z,1033.74
2018-12-30T06:57:59.171Z,1033.76
2018-12-30T06:58:59.114Z,1033.78
2018-12-30T06:59:59.327Z,1033.82
2018-12-30T07:00:59.190Z,1033.87
2018-12-30T07:01:59.218Z,1033.87
2018-12-30T07:02:59.256Z,1033.95
2018-12-30T07:03:59.457Z,1033.94
2018-12-30T07:04:59.206Z,1033.95
2018-12-30T07:05:59.325Z,1034.01
2018-12-30T07:06:59.231Z,1034.01
2018-12-30T07:07:59.263Z,1034.04
2018-12-30T07:09:03.567Z,1034.01
2018-12-30T07:09:59.238Z,1034.07
2018-12-30T07:10:59.291Z,1034.07
2018-12-30T07:11:59.284Z,1034.08
2018-12-30T07:12:59.276Z,1034.11
2018-12-30T07:13:59.260Z,1034.1
2018-12-30T07:14:59.414Z,1034.11
2018-12-30T07:15:59.171Z,1034.1
2018-12-30T07:16:59.357Z,1034.13
2018-12-30T07:17:59.307Z,1034.13
2018-12-30T07:18:59.356Z,1034.2
2018-12-30T07:19:59.135Z,1034.19
2018-12-30T07:20:59.200Z,1034.18
2018-12-30T07:21:59.684Z,1034.19
2018-12-30T07:23:06.269Z,1034.11
2018-12-30T07:23:59.901Z,1034.11
2018-12-30T07:24:59.262Z,1034.14
2018-12-30T07:25:59.309Z,1034.15
2018-12-30T07:26:59.273Z,1034.09
2018-12-30T07:27:59.176Z,1034.13
2018-12-30T07:28:59.176Z,1034.13
2018-12-30T07:29:59.096Z,1034.17
2018-12-30T07:30:59.227Z,1034.19
2018-12-30T07:31:59.230Z,1034.2
2018-12-30T07:32:59.148Z,1034.23
2018-12-30T07:33:59.275Z,1034.25
2018-12-30T07:34:59.118Z,1034.17
2018-12-30T07:35:59.207Z,1034.2
2018-12-30T07:36:59.120Z,1034.18
2018-12-30T07:37:59.104Z,1034.19
2018-12-30T07:38:59.180Z,1034.2
2018-12-30T07:39:59.131Z,1034.23
2018-12-30T07:40:59.045Z,1034.19
2018-12-30T07:41:59.420Z,1034.19
2018-12-30T07:42:59.137Z,1034.22
2018-12-30T07:43:59.108Z,1034.2
2018-12-30T07:44:59.107Z,1034.21
2018-12-30T07:45:59.157Z,1034.18
2018-12-30T07:46:59.473Z,1034.11
2018-12-30T07:47:59.324Z,1034.07
2018-12-30T07:48:59.297Z,1034.14
2018-12-30T07:49:59.271Z,1034.13
2018-12-30T07:50:59.191Z,1034.11
2018-12-30T07:51:59.115Z,1034.07
2018-12-30T07:52:59.231Z,1034.02
2018-12-30T07:53:59.178Z,1034.01
2018-12-30T07:54:59.170Z,1034.01
2018-12-30T07:55:59.127Z,1033.97
2018-12-30T07:56:59.229Z,1034
2018-12-30T07:57:59.346Z,1034.06
2018-12-30T07:58:59.131Z,1034.07
2018-12-30T07:59:59.260Z,1034.08
2018-12-30T08:00:59.242Z,1034.05
2018-12-30T08:01:59.118Z,1034.04
2018-12-30T08:02:59.074Z,1034.09
2018-12-30T08:03:59.340Z,1034.11
2018-12-30T08:04:59.090Z,1034.14
2018-12-30T08:05:59.282Z,1034.14
2018-12-30T08:06:59.161Z,1034.21
2018-12-30T08:07:59.144Z,1034.16
2018-12-30T08:08:59.221Z,1034.18
2018-12-30T08:09:59.294Z,1034.2
2018-12-30T08:10:59.163Z,1034.15
2018-12-30T08:11:59.565Z,1034.27
2018-12-30T08:12:59.266Z,1034.31
2018-12-30T08:13:59.286Z,1034.36
2018-12-30T08:14:59.277Z,1034.36
2018-12-30T08:15:59.179Z,1034.42
2018-12-30T08:16:59.222Z,1034.45
2018-12-30T08:17:59.313Z,1034.47
2018-12-30T08:18:59.855Z,1034.47
2018-12-30T08:19:59.183Z,1034.49
2018-12-30T08:20:59.187Z,1034.53
2018-12-30T08:21:59.182Z,1034.59
2018-12-30T08:22:59.239Z,1034.63
2018-12-30T08:23:59.995Z,1034.66
2018-12-30T08:24:59.182Z,1034.73
2018-12-30T08:25:59.184Z,1034.69
2018-12-30T08:26:59.092Z,1034.68
2018-12-30T08:27:59.022Z,1034.66
2018-12-30T08:28:59.060Z,1034.7
2018-12-30T08:29:59.087Z,1034.69
2018-12-30T08:30:59.262Z,1034.68
2018-12-30T08:31:59.102Z,1034.69
2018-12-30T08:32:59.466Z,1034.71
2018-12-30T08:33:58.942Z,1034.82
2018-12-30T08:34:59.274Z,1034.8
2018-12-30T08:35:59.234Z,1034.83
2018-12-30T08:36:59.081Z,1034.82
2018-12-30T08:37:59.335Z,1034.81
2018-12-30T08:38:59.304Z,1034.87
2018-12-30T08:39:59.067Z,1034.85
2018-12-30T08:40:59.293Z,1034.89
2018-12-30T08:41:59.087Z,1034.95
2018-12-30T08:42:59.024Z,1034.94
2018-12-30T08:43:59.074Z,1034.93
2018-12-30T08:44:59.449Z,1034.93
2018-12-30T08:45:59.225Z,1034.87
2018-12-30T08:46:59.174Z,1034.91
2018-12-30T08:47:59.092Z,1034.89
2018-12-30T08:48:59.158Z,1034.89
2018-12-30T08:49:59.108Z,1034.91
2018-12-30T08:50:59.111Z,1034.89
2018-12-30T08:51:59.445Z,1034.92
2018-12-30T08:52:59.555Z,1034.94
2018-12-30T08:53:59.071Z,1034.94
2018-12-30T08:54:59.083Z,1034.94
2018-12-30T08:55:59.234Z,1034.9
2018-12-30T08:56:59.041Z,1034.9
2018-12-30T08:57:59.188Z,1034.86
2018-12-30T08:58:59.396Z,1034.88
2018-12-30T08:59:59.136Z,1034.92
2018-12-30T09:00:58.945Z,1034.94
2018-12-30T09:01:59.046Z,1034.97
2018-12-30T09:02:59.155Z,1034.97
2018-12-30T09:03:59.430Z,1034.98
2018-12-30T09:04:59.034Z,1034.9
2018-12-30T09:05:59.307Z,1034.89
2018-12-30T09:06:59.363Z,1034.87
2018-12-30T09:07:59.235Z,1034.92
2018-12-30T09:09:02.651Z,1034.9
2018-12-30T09:10:01.741Z,1034.91
2018-12-30T09:11:00.092Z,1034.92
2018-12-30T09:11:59.043Z,1034.89
2018-12-30T09:12:59.315Z,1034.88
2018-12-30T09:13:59.094Z,1034.88
2018-12-30T09:14:59.204Z,1034.96
2018-12-30T09:15:59.405Z,1034.96
2018-12-30T09:16:58.993Z,1035.03
2018-12-30T09:17:58.947Z,1035.07
2018-12-30T09:18:59.010Z,1035.13
2018-12-30T09:19:59.087Z,1035.12
2018-12-30T09:21:02.057Z,1035.11
2018-12-30T09:21:59.038Z,1035.18
2018-12-30T09:22:59.008Z,1035.14
2018-12-30T09:24:03.504Z,1035.15
2018-12-30T09:24:58.949Z,1035.11
2018-12-30T09:25:59.373Z,1035.12
2018-12-30T09:26:58.905Z,1035.18
2018-12-30T09:28:00.187Z,1035.25
2018-12-30T09:28:59.498Z,1035.19
2018-12-30T09:29:58.984Z,1035.17
2018-12-30T09:30:59.057Z,1035.16
2018-12-30T09:31:58.928Z,1035.16
2018-12-30T09:32:59.080Z,1035.14
2018-12-30T09:33:58.996Z,1035.16
2018-12-30T09:34:59.081Z,1035.22
2018-12-30T09:35:59.261Z,1035.26
2018-12-30T09:36:59.276Z,1035.27
2018-12-30T09:37:59.175Z,1035.26
2018-12-30T09:38:59.201Z,1035.28
2018-12-30T09:39:59.148Z,1035.31
2018-12-30T09:40:59.002Z,1035.33
2018-12-30T09:42:00.109Z,1035.39
2018-12-30T09:42:59.066Z,1035.38
2018-12-30T09:43:58.991Z,1035.37
2018-12-30T09:44:59.105Z,1035.32
2018-12-30T09:45:58.917Z,1035.34
2018-12-30T09:46:59.423Z,1035.36
2018-12-30T09:47:59.045Z,1035.37
2018-12-30T09:48:58.923Z,1035.34
2018-12-30T09:49:59.148Z,1035.33
2018-12-30T09:50:59.721Z,1035.37
2018-12-30T09:51:59.376Z,1035.28
2018-12-30T09:52:59.114Z,1035.35
2018-12-30T09:53:59.018Z,1035.36
2018-12-30T09:54:59.025Z,1035.34
2018-12-30T09:55:59.111Z,1035.26
2018-12-30T09:56:59.110Z,1035.25
2018-12-30T09:57:59.013Z,1035.3
2018-12-30T09:58:58.986Z,1035.3
2018-12-30T09:59:58.949Z,1035.35
2018-12-30T10:00:59.170Z,1035.31
2018-12-30T10:01:58.889Z,1035.29
2018-12-30T10:02:59.123Z,1035.33
2018-12-30T10:03:59.025Z,1035.32
2018-12-30T10:04:59.038Z,1035.33
2018-12-30T10:05:59.100Z,1035.3
2018-12-30T10:06:59.247Z,1035.3
2018-12-30T10:07:58.996Z,1035.35
2018-12-30T10:08:58.964Z,1035.35
2018-12-30T10:09:59.090Z,1035.38
2018-12-30T10:10:59.031Z,1035.33
2018-12-30T10:11:59.679Z,1035.34
2018-12-30T10:12:59.351Z,1035.34
2018-12-30T10:13:58.949Z,1035.35
2018-12-30T10:15:09.705Z,1035.35
2018-12-30T10:15:59.079Z,1035.32
2018-12-30T10:16:58.983Z,1035.26
2018-12-30T10:17:58.933Z,1035.29
2018-12-30T10:18:59.668Z,1035.26
2018-12-30T10:19:58.884Z,1035.21
2018-12-30T10:20:58.890Z,1035.18
2018-12-30T10:21:59.221Z,1035.19
2018-12-30T10:22:59.111Z,1035.17
2018-12-30T10:23:58.978Z,1035.14
2018-12-30T10:24:59.018Z,1035.11
2018-12-30T10:25:59.092Z,1035.17
2018-12-30T10:26:58.945Z,1035.12
2018-12-30T10:27:58.979Z,1035.15
2018-12-30T10:29:03.003Z,1035.11
2018-12-30T10:29:58.999Z,1035.06
2018-12-30T10:30:59.043Z,1035.07
2018-12-30T10:31:59.109Z,1035.08
2018-12-30T10:32:58.999Z,1035.09
2018-12-30T10:33:59.022Z,1035.09
2018-12-30T10:34:58.827Z,1035.13
2018-12-30T10:35:58.878Z,1035.1
2018-12-30T10:36:59.260Z,1035.19
2018-12-30T10:37:59.136Z,1035.17
2018-12-30T10:38:58.992Z,1035.24
2018-12-30T10:39:58.831Z,1035.23
2018-12-30T10:40:59.045Z,1035.28
2018-12-30T10:41:59.425Z,1035.26
2018-12-30T10:42:59.188Z,1035.23
2018-12-30T10:43:59.130Z,1035.28
2018-12-30T10:44:59.011Z,1035.23
2018-12-30T10:45:59.023Z,1035.27
2018-12-30T10:46:58.833Z,1035.3
2018-12-30T10:47:58.817Z,1035.29
2018-12-30T10:48:59.054Z,1035.31
2018-12-30T10:49:58.876Z,1035.4
2018-12-30T10:50:59.174Z,1035.4
2018-12-30T10:51:58.848Z,1035.36
2018-12-30T10:52:59.064Z,1035.37
2018-12-30T10:54:00.963Z,1035.33
2018-12-30T10:54:59.627Z,1035.36
2018-12-30T10:55:59.019Z,1035.3
2018-12-30T10:56:59.215Z,1035.32
2018-12-30T10:57:59.019Z,1035.34
2018-12-30T10:58:59.227Z,1035.35
2018-12-30T10:59:59.149Z,1035.35
2018-12-30T11:00:58.815Z,1035.29
2018-12-30T11:01:59.216Z,1035.3
2018-12-30T11:02:59.025Z,1035.29
2018-12-30T11:03:59.103Z,1035.27
2018-12-30T11:04:59.220Z,1035.3
2018-12-30T11:05:59.073Z,1035.27
2018-12-30T11:06:59.459Z,1035.24
2018-12-30T11:07:59.261Z,1035.24
2018-12-30T11:08:59.048Z,1035.21
2018-12-30T11:09:58.998Z,1035.24
2018-12-30T11:10:59.534Z,1035.18
2018-12-30T11:11:59.169Z,1035.18
2018-12-30T11:12:59.182Z,1035.17
2018-12-30T11:13:59.112Z,1035.18
2018-12-30T11:14:59.268Z,1035.14
2018-12-30T11:15:59.476Z,1035.11
2018-12-30T11:16:59.068Z,1035.1
2018-12-30T11:17:58.927Z,1035.11
2018-12-30T11:18:58.813Z,1035.07
2018-12-30T11:19:59.179Z,1035.02
2018-12-30T11:20:59.120Z,1035.09
2018-12-30T11:21:58.974Z,1035.14
2018-12-30T11:22:59.098Z,1035.07
2018-12-30T11:23:59.638Z,1035.09
2018-12-30T11:24:59.317Z,1035.09
2018-12-30T11:25:59.631Z,1035.11
2018-12-30T11:26:58.985Z,1035.15
2018-12-30T11:27:59.342Z,1035.16
2018-12-30T11:28:58.849Z,1035.18
2018-12-30T11:29:59.114Z,1035.19
2018-12-30T11:30:59.165Z,1035.21
2018-12-30T11:31:58.992Z,1035.22
2018-12-30T11:32:58.913Z,1035.25
2018-12-30T11:33:58.796Z,1035.24
2018-12-30T11:34:58.817Z,1035.23
2018-12-30T11:35:59.240Z,1035.2
2018-12-30T11:36:59.033Z,1035.23
2018-12-30T11:37:59.060Z,1035.23
2018-12-30T11:38:59.198Z,1035.18
2018-12-30T11:39:58.969Z,1035.27
2018-12-30T11:40:58.957Z,1035.26
2018-12-30T11:41:59.003Z,1035.28
2018-12-30T11:42:59.026Z,1035.31
2018-12-30T11:43:58.937Z,1035.31
2018-12-30T11:44:59.757Z,1035.29
2018-12-30T11:45:58.984Z,1035.26
2018-12-30T11:46:59.024Z,1035.26
2018-12-30T11:47:58.745Z,1035.27
2018-12-30T11:48:58.944Z,1035.29
2018-12-30T11:49:58.802Z,1035.26
2018-12-30T11:50:58.826Z,1035.2
2018-12-30T11:51:58.745Z,1035.25
2018-12-30T11:52:59.093Z,1035.25
2018-12-30T11:53:59.185Z,1035.23
2018-12-30T11:54:58.865Z,1035.25
2018-12-30T11:55:58.919Z,1035.23
2018-12-30T11:56:59.102Z,1035.27
2018-12-30T11:57:58.767Z,1035.23
2018-12-30T11:58:59.260Z,1035.14
2018-12-30T11:59:59.565Z,1035.17
2018-12-30T12:00:58.808Z,1035.15
2018-12-30T12:01:58.964Z,1035.1
2018-12-30T12:02:58.924Z,1035.12
2018-12-30T12:03:59.342Z,1035.13
2018-12-30T12:04:59.057Z,1035.09
2018-12-30T12:05:59.103Z,1035.1
2018-12-30T12:06:58.969Z,1035.1
2018-12-30T12:07:59.077Z,1035.04